sensor_id;sensor_type;location;lat;lon;timestamp;pressure;altitude;pressure_sealevel;temperature;humidity
72558;BME280;60583;50.094;8.748;2023-05-08T00:00:32;100825.44;;;15.60;78.77
72558;BME280;60583;50.094;8.748;2023-05-08T00:02:58;100836.09;;;15.66;79.08
72558;BME280;60583;50.094;8.748;2023-05-08T00:05:23;100836.19;;;15.60;79.53
72558;BME280;60583;50.094;8.748;2023-05-08T00:07:49;100825.25;;;15.55;78.81
72558;BME280;60583;50.094;8.748;2023-05-08T00:10:16;100840.13;;;15.57;79.09
72558;BME280;60583;50.094;8.748;2023-05-08T00:12:41;100841.22;;;15.50;79.13
72558;BME280;60583;50.094;8.748;2023-05-08T00:15:07;100844.25;;;15.60;78.88
72558;BME280;60583;50.094;8.748;2023-05-08T00:17:33;100833.94;;;15.57;79.18
72558;BME280;60583;50.094;8.748;2023-05-08T00:19:58;100847.91;;;15.41;80.15
72558;BME280;60583;50.094;8.748;2023-05-08T00:22:24;100838.56;;;15.43;80.26
72558;BME280;60583;50.094;8.748;2023-05-08T00:24:49;100841.41;;;15.55;80.29
72558;BME280;60583;50.094;8.748;2023-05-08T00:27:15;100847.44;;;15.44;80.19
72558;BME280;60583;50.094;8.748;2023-05-08T00:29:40;100840.63;;;15.41;80.79
72558;BME280;60583;50.094;8.748;2023-05-08T00:32:06;100841.56;;;15.28;79.71
72558;BME280;60583;50.094;8.748;2023-05-08T00:34:32;100844.72;;;15.19;81.23
72558;BME280;60583;50.094;8.748;2023-05-08T00:36:57;100852.94;;;15.30;80.92
72558;BME280;60583;50.094;8.748;2023-05-08T00:39:23;100850.59;;;15.41;81.77
72558;BME280;60583;50.094;8.748;2023-05-08T00:41:48;100853.53;;;15.32;80.93
72558;BME280;60583;50.094;8.748;2023-05-08T00:44:13;100844.88;;;15.30;79.61
72558;BME280;60583;50.094;8.748;2023-05-08T00:46:40;100822.06;;;15.08;79.13
72558;BME280;60583;50.094;8.748;2023-05-08T00:49:06;100830.22;;;15.26;79.33
72558;BME280;60583;50.094;8.748;2023-05-08T00:51:34;100834.56;;;15.27;79.35
72558;BME280;60583;50.094;8.748;2023-05-08T00:54:00;100846.38;;;15.20;78.90
72558;BME280;60583;50.094;8.748;2023-05-08T00:56:27;100845.50;;;15.26;78.19
72558;BME280;60583;50.094;8.748;2023-05-08T00:58:53;100834.47;;;15.09;78.55
72558;BME280;60583;50.094;8.748;2023-05-08T01:01:18;100833.44;;;15.10;78.37
72558;BME280;60583;50.094;8.748;2023-05-08T01:03:44;100848.16;;;15.01;78.46
72558;BME280;60583;50.094;8.748;2023-05-08T01:06:10;100843.38;;;15.03;79.04
72558;BME280;60583;50.094;8.748;2023-05-08T01:08:35;100845.28;;;14.96;78.97
72558;BME280;60583;50.094;8.748;2023-05-08T01:11:06;100857.44;;;15.05;78.43
72558;BME280;60583;50.094;8.748;2023-05-08T01:16:42;100863.13;;;14.84;78.40
72558;BME280;60583;50.094;8.748;2023-05-08T01:19:23;100862.09;;;14.85;78.82
72558;BME280;60583;50.094;8.748;2023-05-08T01:22:18;100856.88;;;14.97;78.20
72558;BME280;60583;50.094;8.748;2023-05-08T01:24:52;100848.69;;;14.79;78.65
72558;BME280;60583;50.094;8.748;2023-05-08T01:27:28;100870.94;;;14.92;78.74
72558;BME280;60583;50.094;8.748;2023-05-08T01:30:35;100867.84;;;14.95;78.46
72558;BME280;60583;50.094;8.748;2023-05-08T01:33:11;100877.53;;;14.96;78.53
72558;BME280;60583;50.094;8.748;2023-05-08T01:35:48;100865.09;;;15.02;78.57
72558;BME280;60583;50.094;8.748;2023-05-08T01:38:20;100867.13;;;15.06;77.93
72558;BME280;60583;50.094;8.748;2023-05-08T01:40:52;100865.94;;;15.02;77.87
72558;BME280;60583;50.094;8.748;2023-05-08T01:43:32;100864.25;;;14.70;78.69
72558;BME280;60583;50.094;8.748;2023-05-08T01:46:04;100871.38;;;14.89;78.31
72558;BME280;60583;50.094;8.748;2023-05-08T01:48:33;100862.41;;;14.64;78.86
72558;BME280;60583;50.094;8.748;2023-05-08T01:51:03;100870.59;;;14.76;78.95
72558;BME280;60583;50.094;8.748;2023-05-08T01:53:35;100879.88;;;14.80;78.62
72558;BME280;60583;50.094;8.748;2023-05-08T01:56:04;100866.47;;;14.80;78.78
72558;BME280;60583;50.094;8.748;2023-05-08T01:58:34;100854.59;;;14.56;78.69
72558;BME280;60583;50.094;8.748;2023-05-08T02:01:01;100889.03;;;14.65;79.33
72558;BME280;60583;50.094;8.748;2023-05-08T02:03:27;100877.22;;;14.73;78.99
72558;BME280;60583;50.094;8.748;2023-05-08T02:05:56;100876.78;;;14.83;78.41
72558;BME280;60583;50.094;8.748;2023-05-08T02:08:23;100893.69;;;14.83;78.18
72558;BME280;60583;50.094;8.748;2023-05-08T02:10:50;100888.31;;;14.83;78.14
72558;BME280;60583;50.094;8.748;2023-05-08T02:13:18;100896.13;;;14.91;77.94
72558;BME280;60583;50.094;8.748;2023-05-08T02:15:50;100871.00;;;14.79;77.86
72558;BME280;60583;50.094;8.748;2023-05-08T02:18:22;100896.97;;;14.92;77.81
72558;BME280;60583;50.094;8.748;2023-05-08T02:20:49;100894.94;;;14.87;78.44
72558;BME280;60583;50.094;8.748;2023-05-08T02:23:17;100900.34;;;14.74;77.93
72558;BME280;60583;50.094;8.748;2023-05-08T02:25:44;100888.19;;;14.72;78.47
72558;BME280;60583;50.094;8.748;2023-05-08T02:28:11;100893.31;;;14.80;77.69
72558;BME280;60583;50.094;8.748;2023-05-08T02:30:37;100898.47;;;14.81;77.96
72558;BME280;60583;50.094;8.748;2023-05-08T02:33:07;100886.31;;;14.72;78.05
72558;BME280;60583;50.094;8.748;2023-05-08T02:35:34;100900.34;;;14.74;78.47
72558;BME280;60583;50.094;8.748;2023-05-08T02:38:01;100901.97;;;14.82;78.74
72558;BME280;60583;50.094;8.748;2023-05-08T02:40:28;100905.56;;;14.62;78.78
72558;BME280;60583;50.094;8.748;2023-05-08T02:42:54;100886.81;;;14.49;79.41
72558;BME280;60583;50.094;8.748;2023-05-08T02:45:22;100914.88;;;14.53;79.30
72558;BME280;60583;50.094;8.748;2023-05-08T02:48:29;100904.16;;;14.47;79.19
72558;BME280;60583;50.094;8.748;2023-05-08T02:51:03;100901.69;;;14.52;78.61
72558;BME280;60583;50.094;8.748;2023-05-08T02:53:38;100912.78;;;14.62;78.43
72558;BME280;60583;50.094;8.748;2023-05-08T02:56:10;100900.44;;;14.54;78.61
72558;BME280;60583;50.094;8.748;2023-05-08T02:58:48;100908.25;;;14.62;78.51
72558;BME280;60583;50.094;8.748;2023-05-08T03:01:41;100921.47;;;14.64;78.81
72558;BME280;60583;50.094;8.748;2023-05-08T03:04:10;100914.03;;;14.53;78.70
72558;BME280;60583;50.094;8.748;2023-05-08T03:06:41;100907.47;;;14.49;78.75
72558;BME280;60583;50.094;8.748;2023-05-08T03:09:19;100914.47;;;14.56;78.93
72558;BME280;60583;50.094;8.748;2023-05-08T03:11:48;100905.38;;;14.51;77.99
72558;BME280;60583;50.094;8.748;2023-05-08T03:14:19;100894.06;;;14.42;78.70
72558;BME280;60583;50.094;8.748;2023-05-08T03:16:49;100909.13;;;14.50;78.98
72558;BME280;60583;50.094;8.748;2023-05-08T03:19:36;100913.22;;;14.59;78.62
72558;BME280;60583;50.094;8.748;2023-05-08T03:22:04;100915.34;;;14.37;78.95
72558;BME280;60583;50.094;8.748;2023-05-08T03:24:36;100915.50;;;14.49;78.92
72558;BME280;60583;50.094;8.748;2023-05-08T03:27:03;100895.75;;;14.37;78.84
72558;BME280;60583;50.094;8.748;2023-05-08T03:29:30;100912.41;;;14.52;78.49
72558;BME280;60583;50.094;8.748;2023-05-08T03:32:00;100891.81;;;14.39;78.39
72558;BME280;60583;50.094;8.748;2023-05-08T03:34:27;100908.91;;;14.51;78.35
72558;BME280;60583;50.094;8.748;2023-05-08T03:36:54;100905.84;;;14.15;79.61
72558;BME280;60583;50.094;8.748;2023-05-08T03:39:20;100900.06;;;14.25;79.42
72558;BME280;60583;50.094;8.748;2023-05-08T03:41:46;100912.84;;;14.36;79.61
72558;BME280;60583;50.094;8.748;2023-05-08T03:44:14;100894.94;;;14.17;79.55
72558;BME280;60583;50.094;8.748;2023-05-08T03:46:41;100915.16;;;14.32;79.82
72558;BME280;60583;50.094;8.748;2023-05-08T03:49:07;100914.94;;;14.27;80.47
72558;BME280;60583;50.094;8.748;2023-05-08T03:51:36;100921.09;;;14.28;80.06
72558;BME280;60583;50.094;8.748;2023-05-08T03:54:02;100919.69;;;14.32;80.52
72558;BME280;60583;50.094;8.748;2023-05-08T03:56:28;100910.81;;;14.25;80.29
72558;BME280;60583;50.094;8.748;2023-05-08T04:02:16;100914.53;;;14.17;80.76
72558;BME280;60583;50.094;8.748;2023-05-08T04:04:45;100920.50;;;14.19;81.37
72558;BME280;60583;50.094;8.748;2023-05-08T04:07:16;100923.59;;;14.29;80.89
72558;BME280;60583;50.094;8.748;2023-05-08T04:10:06;100933.09;;;14.38;81.32
72558;BME280;60583;50.094;8.748;2023-05-08T04:12:55;100940.53;;;14.36;81.67
72558;BME280;60583;50.094;8.748;2023-05-08T04:15:26;100944.66;;;14.39;81.57
72558;BME280;60583;50.094;8.748;2023-05-08T04:17:56;100949.19;;;14.32;81.70
72558;BME280;60583;50.094;8.748;2023-05-08T04:20:25;100943.78;;;14.25;81.59
72558;BME280;60583;50.094;8.748;2023-05-08T04:22:52;100944.22;;;14.29;82.03
72558;BME280;60583;50.094;8.748;2023-05-08T04:25:19;100921.94;;;14.15;81.65
72558;BME280;60583;50.094;8.748;2023-05-08T04:27:48;100944.66;;;14.19;81.37
72558;BME280;60583;50.094;8.748;2023-05-08T04:30:15;100935.56;;;14.14;81.37
72558;BME280;60583;50.094;8.748;2023-05-08T04:32:41;100939.06;;;14.07;81.56
72558;BME280;60583;50.094;8.748;2023-05-08T04:35:07;100946.09;;;13.95;82.16
72558;BME280;60583;50.094;8.748;2023-05-08T04:37:33;100956.00;;;14.08;81.62
72558;BME280;60583;50.094;8.748;2023-05-08T04:39:59;100940.72;;;14.08;81.76
72558;BME280;60583;50.094;8.748;2023-05-08T04:42:25;100944.22;;;14.02;81.93
72558;BME280;60583;50.094;8.748;2023-05-08T04:44:52;100956.00;;;14.08;81.49
72558;BME280;60583;50.094;8.748;2023-05-08T04:47:18;100944.25;;;14.09;81.53
72558;BME280;60583;50.094;8.748;2023-05-08T04:49:43;100956.81;;;14.08;81.76
72558;BME280;60583;50.094;8.748;2023-05-08T04:52:10;100959.94;;;14.12;81.84
72558;BME280;60583;50.094;8.748;2023-05-08T04:54:35;100959.31;;;14.03;81.70
72558;BME280;60583;50.094;8.748;2023-05-08T04:57:00;100942.81;;;13.93;81.61
72558;BME280;60583;50.094;8.748;2023-05-08T04:59:26;100952.91;;;14.04;81.87
72558;BME280;60583;50.094;8.748;2023-05-08T05:01:53;100960.53;;;14.01;81.97
72558;BME280;60583;50.094;8.748;2023-05-08T05:04:20;100961.16;;;13.90;82.88
72558;BME280;60583;50.094;8.748;2023-05-08T05:06:46;100948.94;;;13.48;83.00
72558;BME280;60583;50.094;8.748;2023-05-08T05:09:12;100963.19;;;13.49;83.85
72558;BME280;60583;50.094;8.748;2023-05-08T05:11:37;100969.34;;;13.36;84.11
72558;BME280;60583;50.094;8.748;2023-05-08T05:14:04;100971.97;;;13.29;85.26
72558;BME280;60583;50.094;8.748;2023-05-08T05:16:31;100952.44;;;13.42;84.80
72558;BME280;60583;50.094;8.748;2023-05-08T05:18:57;100981.75;;;13.63;85.25
72558;BME280;60583;50.094;8.748;2023-05-08T05:21:23;100971.66;;;13.65;85.07
72558;BME280;60583;50.094;8.748;2023-05-08T05:23:48;100976.00;;;13.79;84.99
72558;BME280;60583;50.094;8.748;2023-05-08T05:26:14;100983.03;;;13.93;84.47
72558;BME280;60583;50.094;8.748;2023-05-08T05:28:39;100983.00;;;14.00;83.84
72558;BME280;60583;50.094;8.748;2023-05-08T05:31:04;100973.53;;;13.97;83.92
72558;BME280;60583;50.094;8.748;2023-05-08T05:33:30;100984.25;;;13.97;83.74
72558;BME280;60583;50.094;8.748;2023-05-08T05:35:55;100990.06;;;13.94;84.54
72558;BME280;60583;50.094;8.748;2023-05-08T05:38:21;100983.03;;;13.93;84.04
72558;BME280;60583;50.094;8.748;2023-05-08T05:40:46;100990.25;;;13.86;84.30
72558;BME280;60583;50.094;8.748;2023-05-08T05:43:12;101000.97;;;13.86;84.48
72558;BME280;60583;50.094;8.748;2023-05-08T05:45:37;101000.34;;;13.84;84.41
72558;BME280;60583;50.094;8.748;2023-05-08T05:48:04;101008.19;;;13.92;84.18
72558;BME280;60583;50.094;8.748;2023-05-08T05:50:29;101008.59;;;13.89;83.64
72558;BME280;60583;50.094;8.748;2023-05-08T05:52:55;101010.66;;;13.94;84.12
72558;BME280;60583;50.094;8.748;2023-05-08T05:55:20;101011.22;;;13.70;84.59
72558;BME280;60583;50.094;8.748;2023-05-08T05:57:46;101019.53;;;13.81;84.45
72558;BME280;60583;50.094;8.748;2023-05-08T06:00:12;100995.78;;;13.78;84.11
72558;BME280;60583;50.094;8.748;2023-05-08T06:02:41;101003.59;;;13.60;84.86
72558;BME280;60583;50.094;8.748;2023-05-08T06:05:08;101017.38;;;13.44;85.67
72558;BME280;60583;50.094;8.748;2023-05-08T06:07:34;101015.75;;;13.56;85.71
72558;BME280;60583;50.094;8.748;2023-05-08T06:10:00;101013.91;;;13.63;85.81
72558;BME280;60583;50.094;8.748;2023-05-08T06:12:25;101018.66;;;13.68;86.25
72558;BME280;60583;50.094;8.748;2023-05-08T06:14:52;100998.66;;;13.70;85.94
72558;BME280;60583;50.094;8.748;2023-05-08T06:17:17;101009.81;;;13.74;85.91
72558;BME280;60583;50.094;8.748;2023-05-08T06:19:43;101007.34;;;13.79;85.36
72558;BME280;60583;50.094;8.748;2023-05-08T06:22:15;101014.38;;;13.86;85.56
72558;BME280;60583;50.094;8.748;2023-05-08T06:24:40;101006.91;;;13.75;85.75
72558;BME280;60583;50.094;8.748;2023-05-08T06:27:06;101017.66;;;13.69;86.08
72558;BME280;60583;50.094;8.748;2023-05-08T06:29:31;101013.50;;;13.66;86.21
72558;BME280;60583;50.094;8.748;2023-05-08T06:31:57;101027.53;;;13.75;85.76
72558;BME280;60583;50.094;8.748;2023-05-08T06:34:22;101025.06;;;13.80;85.90
72558;BME280;60583;50.094;8.748;2023-05-08T06:36:47;101035.59;;;13.81;86.45
72558;BME280;60583;50.094;8.748;2023-05-08T06:39:13;101033.72;;;13.75;86.07
72558;BME280;60583;50.094;8.748;2023-05-08T06:41:38;101037.66;;;13.86;85.97
72558;BME280;60583;50.094;8.748;2023-05-08T06:44:04;101042.38;;;13.77;86.53
72558;BME280;60583;50.094;8.748;2023-05-08T06:46:29;101041.81;;;13.82;86.03
72558;BME280;60583;50.094;8.748;2023-05-08T06:48:54;101048.41;;;13.86;85.95
72558;BME280;60583;50.094;8.748;2023-05-08T06:51:20;101040.56;;;13.84;85.71
72558;BME280;60583;50.094;8.748;2023-05-08T06:53:47;101039.53;;;13.79;87.00
72558;BME280;60583;50.094;8.748;2023-05-08T06:56:13;101036.22;;;13.90;86.88
72558;BME280;60583;50.094;8.748;2023-05-08T06:58:38;101015.38;;;13.85;87.23
72558;BME280;60583;50.094;8.748;2023-05-08T07:01:03;101035.63;;;14.07;85.96
72558;BME280;60583;50.094;8.748;2023-05-08T07:03:29;101040.38;;;14.05;86.16
72558;BME280;60583;50.094;8.748;2023-05-08T07:05:54;101032.13;;;14.00;85.62
72558;BME280;60583;50.094;8.748;2023-05-08T07:08:20;101023.88;;;14.02;85.88
72558;BME280;60583;50.094;8.748;2023-05-08T07:10:45;101012.13;;;13.96;85.63
72558;BME280;60583;50.094;8.748;2023-05-08T07:13:11;101034.41;;;14.17;85.07
72558;BME280;60583;50.094;8.748;2023-05-08T07:15:36;101021.19;;;14.15;85.54
72558;BME280;60583;50.094;8.748;2023-05-08T07:18:03;101028.81;;;13.98;85.36
72558;BME280;60583;50.094;8.748;2023-05-08T07:20:29;101030.28;;;13.94;85.51
72558;BME280;60583;50.094;8.748;2023-05-08T07:22:54;101042.03;;;14.06;85.65
72558;BME280;60583;50.094;8.748;2023-05-08T07:25:20;101027.59;;;13.94;85.72
72558;BME280;60583;50.094;8.748;2023-05-08T07:27:45;101042.66;;;14.08;85.21
72558;BME280;60583;50.094;8.748;2023-05-08T07:30:10;101025.53;;;14.03;84.89
72558;BME280;60583;50.094;8.748;2023-05-08T07:32:36;101032.13;;;14.27;85.04
72558;BME280;60583;50.094;8.748;2023-05-08T07:35:04;101045.75;;;14.25;84.73
72558;BME280;60583;50.094;8.748;2023-05-08T07:37:30;101041.00;;;14.21;84.59
72558;BME280;60583;50.094;8.748;2023-05-08T07:39:57;101026.78;;;14.27;84.88
72558;BME280;60583;50.094;8.748;2023-05-08T07:42:22;101038.13;;;14.29;84.36
72558;BME280;60583;50.094;8.748;2023-05-08T07:44:48;101040.22;;;14.40;85.13
72558;BME280;60583;50.094;8.748;2023-05-08T07:47:13;101043.31;;;14.37;84.91
72558;BME280;60583;50.094;8.748;2023-05-08T07:49:38;101042.88;;;14.27;85.40
72558;BME280;60583;50.094;8.748;2023-05-08T07:52:04;101036.69;;;14.20;86.17
72558;BME280;60583;50.094;8.748;2023-05-08T07:54:29;101044.97;;;14.31;86.18
72558;BME280;60583;50.094;8.748;2023-05-08T07:56:55;101040.81;;;14.35;85.96
72558;BME280;60583;50.094;8.748;2023-05-08T07:59:20;101042.69;;;14.35;85.01
72558;BME280;60583;50.094;8.748;2023-05-08T08:01:45;101032.78;;;14.35;85.05
72558;BME280;60583;50.094;8.748;2023-05-08T08:04:12;101024.09;;;14.33;84.72
72558;BME280;60583;50.094;8.748;2023-05-08T08:06:40;101036.28;;;14.36;84.53
72558;BME280;60583;50.094;8.748;2023-05-08T08:09:06;101032.38;;;14.38;85.08
72558;BME280;60583;50.094;8.748;2023-05-08T08:11:32;101030.72;;;14.44;84.91
72558;BME280;60583;50.094;8.748;2023-05-08T08:13:57;101029.69;;;14.45;85.30
72558;BME280;60583;50.094;8.748;2023-05-08T08:16:22;101029.28;;;14.41;85.57
72558;BME280;60583;50.094;8.748;2023-05-08T08:18:48;101033.41;;;14.37;85.52
72558;BME280;60583;50.094;8.748;2023-05-08T08:21:13;101045.16;;;14.56;85.51
72558;BME280;60583;50.094;8.748;2023-05-08T08:23:39;101046.41;;;14.60;86.17
72558;BME280;60583;50.094;8.748;2023-05-08T08:26:04;101038.94;;;14.68;85.54
72558;BME280;60583;50.094;8.748;2023-05-08T08:28:29;101035.84;;;14.72;85.38
72558;BME280;60583;50.094;8.748;2023-05-08T08:30:55;101044.72;;;14.72;83.90
72558;BME280;60583;50.094;8.748;2023-05-08T08:33:20;101032.31;;;14.78;84.23
72558;BME280;60583;50.094;8.748;2023-05-08T08:35:46;101037.88;;;14.76;83.58
72558;BME280;60583;50.094;8.748;2023-05-08T08:38:11;101041.63;;;14.55;84.56
72558;BME280;60583;50.094;8.748;2023-05-08T08:40:40;101040.84;;;14.55;84.34
72558;BME280;60583;50.094;8.748;2023-05-08T08:43:06;101030.91;;;14.49;84.91
72558;BME280;60583;50.094;8.748;2023-05-08T08:45:32;101033.41;;;14.44;85.41
72558;BME280;60583;50.094;8.748;2023-05-08T08:48:00;101035.03;;;14.58;85.52
72558;BME280;60583;50.094;8.748;2023-05-08T08:50:29;101036.66;;;14.72;84.75
72558;BME280;60583;50.094;8.748;2023-05-08T08:53:06;101009.84;;;14.46;84.51
72558;BME280;60583;50.094;8.748;2023-05-08T08:55:32;101043.28;;;14.56;84.79
72558;BME280;60583;50.094;8.748;2023-05-08T08:58:20;101044.72;;;14.72;84.26
72558;BME280;60583;50.094;8.748;2023-05-08T09:00:48;101039.97;;;14.74;83.75
72558;BME280;60583;50.094;8.748;2023-05-08T09:03:13;101045.34;;;14.61;84.06
72558;BME280;60583;50.094;8.748;2023-05-08T09:05:39;101046.19;;;14.42;85.48
72558;BME280;60583;50.094;8.748;2023-05-08T09:08:05;101049.50;;;14.37;85.14
72558;BME280;60583;50.094;8.748;2023-05-08T09:10:31;101038.75;;;14.44;85.76
72558;BME280;60583;50.094;8.748;2023-05-08T09:12:56;101048.03;;;14.61;84.69
72558;BME280;60583;50.094;8.748;2023-05-08T09:15:22;101030.50;;;14.52;84.94
72558;BME280;60583;50.094;8.748;2023-05-08T09:17:47;101042.03;;;14.65;85.01
72558;BME280;60583;50.094;8.748;2023-05-08T09:20:13;101053.59;;;14.79;84.35
72558;BME280;60583;50.094;8.748;2023-05-08T09:22:41;101044.44;;;14.93;83.90
72558;BME280;60583;50.094;8.748;2023-05-08T09:25:07;101035.38;;;14.94;84.30
72558;BME280;60583;50.094;8.748;2023-05-08T09:27:32;101056.44;;;14.97;84.56
72558;BME280;60583;50.094;8.748;2023-05-08T09:30:07;101057.25;;;15.04;84.49
72558;BME280;60583;50.094;8.748;2023-05-08T09:32:34;101058.50;;;15.02;84.07
72558;BME280;60583;50.094;8.748;2023-05-08T09:35:00;101059.72;;;15.06;83.48
72558;BME280;60583;50.094;8.748;2023-05-08T09:37:26;101066.56;;;14.95;80.40
72558;BME280;60583;50.094;8.748;2023-05-08T09:39:53;101061.41;;;15.00;80.32
72558;BME280;60583;50.094;8.748;2023-05-08T09:42:19;101067.56;;;15.07;80.54
72558;BME280;60583;50.094;8.748;2023-05-08T09:44:52;101064.06;;;15.07;79.88
72558;BME280;60583;50.094;8.748;2023-05-08T09:47:22;101065.72;;;15.01;79.20
72558;BME280;60583;50.094;8.748;2023-05-08T09:52:27;101077.84;;;15.23;78.96
72558;BME280;60583;50.094;8.748;2023-05-08T09:57:23;101067.56;;;15.07;79.25
72558;BME280;60583;50.094;8.748;2023-05-08T09:59:48;101069.59;;;15.18;79.53
72558;BME280;60583;50.094;8.748;2023-05-08T10:02:14;101072.50;;;15.17;80.03
72558;BME280;60583;50.094;8.748;2023-05-08T10:04:44;101088.66;;;15.10;83.14
72558;BME280;60583;50.094;8.748;2023-05-08T10:07:10;101079.56;;;15.05;82.71
72558;BME280;60583;50.094;8.748;2023-05-08T10:09:35;101081.00;;;15.07;82.35
72558;BME280;60583;50.094;8.748;2023-05-08T10:12:01;101086.16;;;15.15;82.42
72558;BME280;60583;50.094;8.748;2023-05-08T10:14:27;101074.97;;;15.25;81.86
72558;BME280;60583;50.094;8.748;2023-05-08T10:16:53;101080.47;;;15.43;81.56
72558;BME280;60583;50.094;8.748;2023-05-08T10:19:23;101087.88;;;15.54;81.29
72558;BME280;60583;50.094;8.748;2023-05-08T10:21:53;101086.88;;;15.49;80.66
72558;BME280;60583;50.094;8.748;2023-05-08T10:24:27;101086.50;;;15.45;80.35
72558;BME280;60583;50.094;8.748;2023-05-08T10:27:22;101088.78;;;15.28;78.75
72558;BME280;60583;50.094;8.748;2023-05-08T10:29:53;101067.59;;;14.94;79.29
72558;BME280;60583;50.094;8.748;2023-05-08T10:32:21;101084.03;;;15.24;79.65
72558;BME280;60583;50.094;8.748;2023-05-08T10:34:58;101080.25;;;15.45;78.73
72558;BME280;60583;50.094;8.748;2023-05-08T10:37:24;101084.03;;;15.30;78.54
72558;BME280;60583;50.094;8.748;2023-05-08T10:39:54;101069.59;;;15.25;78.29
72558;BME280;60583;50.094;8.748;2023-05-08T10:42:20;101083.19;;;15.37;77.90
72558;BME280;60583;50.094;8.748;2023-05-08T10:44:46;101077.38;;;15.46;78.23
72558;BME280;60583;50.094;8.748;2023-05-08T10:49:50;101064.53;;;15.55;77.71
72558;BME280;60583;50.094;8.748;2023-05-08T10:52:43;101069.97;;;15.79;77.18
72558;BME280;60583;50.094;8.748;2023-05-08T10:55:28;101062.66;;;15.93;76.70
72558;BME280;60583;50.094;8.748;2023-05-08T10:58:13;101068.22;;;15.98;75.50
72558;BME280;60583;50.094;8.748;2023-05-08T11:03:22;101065.16;;;16.44;74.62
72558;BME280;60583;50.094;8.748;2023-05-08T11:05:51;101048.03;;;16.38;74.75
72558;BME280;60583;50.094;8.748;2023-05-08T11:08:18;101055.88;;;16.40;73.42
72558;BME280;60583;50.094;8.748;2023-05-08T11:11:04;101059.03;;;16.62;72.91
72558;BME280;60583;50.094;8.748;2023-05-08T11:13:37;101044.31;;;16.82;72.63
72558;BME280;60583;50.094;8.748;2023-05-08T11:16:05;101053.06;;;17.32;70.41
72558;BME280;60583;50.094;8.748;2023-05-08T11:18:31;101050.09;;;17.58;70.34
72558;BME280;60583;50.094;8.748;2023-05-08T11:21:19;101043.00;;;17.75;69.53
72558;BME280;60583;50.094;8.748;2023-05-08T11:23:56;101057.53;;;18.04;68.10
72558;BME280;60583;50.094;8.748;2023-05-08T11:26:39;101041.75;;;17.90;68.19
72558;BME280;60583;50.094;8.748;2023-05-08T11:29:15;101051.44;;;18.09;68.97
72558;BME280;60583;50.094;8.748;2023-05-08T11:31:49;101047.00;;;18.26;68.41
72558;BME280;60583;50.094;8.748;2023-05-08T11:37:10;101040.53;;;19.20;66.85
72558;BME280;60583;50.094;8.748;2023-05-08T11:39:36;101018.50;;;18.53;67.95
72558;BME280;60583;50.094;8.748;2023-05-08T11:45:11;101034.69;;;17.77;69.91
72558;BME280;60583;50.094;8.748;2023-05-08T11:47:39;101019.84;;;17.68;69.68
72558;BME280;60583;50.094;8.748;2023-05-08T11:50:08;101018.53;;;17.89;70.07
72558;BME280;60583;50.094;8.748;2023-05-08T11:52:35;101043.19;;;18.04;71.50
72558;BME280;60583;50.094;8.748;2023-05-08T11:55:05;101030.84;;;17.96;71.94
72558;BME280;60583;50.094;8.748;2023-05-08T11:57:31;101037.41;;;17.89;71.97
72558;BME280;60583;50.094;8.748;2023-05-08T11:59:57;101041.09;;;18.06;71.54
72558;BME280;60583;50.094;8.748;2023-05-08T12:02:40;101024.09;;;18.17;70.17
72558;BME280;60583;50.094;8.748;2023-05-08T12:05:09;101026.03;;;18.51;69.90
72558;BME280;60583;50.094;8.748;2023-05-08T12:07:45;101028.63;;;18.58;69.14
72558;BME280;60583;50.094;8.748;2023-05-08T12:10:14;101022.28;;;18.75;67.89
72558;BME280;60583;50.094;8.748;2023-05-08T12:12:41;101020.81;;;18.96;68.24
72558;BME280;60583;50.094;8.748;2023-05-08T12:17:32;101012.22;;;19.10;67.89
72558;BME280;60583;50.094;8.748;2023-05-08T12:20:17;101007.34;;;19.36;67.30
72558;BME280;60583;50.094;8.748;2023-05-08T12:22:49;101025.50;;;19.80;65.42
72558;BME280;60583;50.094;8.748;2023-05-08T12:25:16;101036.53;;;20.07;63.78
72558;BME280;60583;50.094;8.748;2023-05-08T12:27:42;101025.28;;;20.26;65.03
72558;BME280;60583;50.094;8.748;2023-05-08T12:30:12;101036.69;;;20.17;63.81
72558;BME280;60583;50.094;8.748;2023-05-08T12:32:39;101034.56;;;20.02;63.31
72558;BME280;60583;50.094;8.748;2023-05-08T12:35:08;101001.69;;;20.27;62.14
72558;BME280;60583;50.094;8.748;2023-05-08T12:37:34;101018.50;;;20.46;61.95
72558;BME280;60583;50.094;8.748;2023-05-08T12:39:59;101009.19;;;20.37;62.06
72558;BME280;60583;50.094;8.748;2023-05-08T12:42:45;101007.44;;;20.30;62.58
72558;BME280;60583;50.094;8.748;2023-05-08T12:45:25;101008.25;;;20.48;62.96
72558;BME280;60583;50.094;8.748;2023-05-08T12:47:53;101019.31;;;20.63;63.32
72558;BME280;60583;50.094;8.748;2023-05-08T12:50:22;101021.59;;;20.04;64.09
72558;BME280;60583;50.094;8.748;2023-05-08T12:52:49;101012.50;;;20.10;64.43
72558;BME280;60583;50.094;8.748;2023-05-08T12:55:28;101021.59;;;20.04;63.57
72558;BME280;60583;50.094;8.748;2023-05-08T12:58:05;101020.44;;;20.00;63.79
72558;BME280;60583;50.094;8.748;2023-05-08T13:00:38;100993.69;;;19.87;63.83
72558;BME280;60583;50.094;8.748;2023-05-08T13:03:05;101004.50;;;19.87;64.13
72558;BME280;60583;50.094;8.748;2023-05-08T13:05:33;101023.38;;;19.82;63.98
72558;BME280;60583;50.094;8.748;2023-05-08T13:08:04;101006.81;;;19.79;63.93
72558;BME280;60583;50.094;8.748;2023-05-08T13:11:02;101008.19;;;20.26;63.45
72558;BME280;60583;50.094;8.748;2023-05-08T13:13:35;101007.72;;;20.17;64.43
72558;BME280;60583;50.094;8.748;2023-05-08T13:16:02;100988.00;;;19.72;64.44
72558;BME280;60583;50.094;8.748;2023-05-08T13:18:28;101000.00;;;19.76;65.40
72558;BME280;60583;50.094;8.748;2023-05-08T13:20:54;100990.59;;;19.95;65.38
72558;BME280;60583;50.094;8.748;2023-05-08T13:23:20;100987.31;;;19.93;66.21